createdAt,value
2022-09-18T00:01:24.979Z,9.79
2022-09-18T00:03:57.162Z,9.70
2022-09-18T00:06:29.368Z,9.84
2022-09-18T00:08:58.168Z,9.88
2022-09-18T00:11:28.674Z,9.90
2022-09-18T00:13:55.456Z,9.92
2022-09-18T00:16:25.788Z,9.92
2022-09-18T00:18:52.987Z,9.98
2022-09-18T00:21:24.483Z,10.03
2022-09-18T00:23:56.702Z,10.06
2022-09-18T00:26:25.698Z,10.20
2022-09-18T00:28:53.798Z,10.04
2022-09-18T00:31:25.708Z,10.04
2022-09-18T00:33:55.469Z,10.09
2022-09-18T00:36:22.596Z,10.08
2022-09-18T00:38:52.047Z,10.10
2022-09-18T00:41:24.078Z,10.04
2022-09-18T00:43:52.465Z,10.08
2022-09-18T00:46:46.072Z,10.09
2022-09-18T00:49:26.172Z,10.11
2022-09-18T00:51:55.471Z,10.09
2022-09-18T00:54:27.940Z,10.07
2022-09-18T00:57:01.853Z,10.05
2022-09-18T00:59:30.932Z,10.08
2022-09-18T01:01:58.219Z,10.08
2022-09-18T01:04:25.854Z,10.08
2022-09-18T01:07:18.627Z,10.11
2022-09-18T01:10:06.686Z,10.00
2022-09-18T01:12:53.643Z,9.99
2022-09-18T01:15:54.649Z,9.95
2022-09-18T01:18:32.133Z,10.00
2022-09-18T01:21:04.538Z,10.07
2022-09-18T01:24:01.910Z,10.06
2022-09-18T01:26:37.459Z,10.12
2022-09-18T01:29:23.534Z,10.13
2022-09-18T01:32:01.604Z,10.12
2022-09-18T01:34:42.433Z,10.10
2022-09-18T01:37:21.827Z,10.12
2022-09-18T01:40:24.042Z,10.07
2022-09-18T01:42:55.205Z,10.05
2022-09-18T01:45:27.883Z,10.00
2022-09-18T01:48:05.283Z,10.05
2022-09-18T01:50:35.850Z,10.10
2022-09-18T01:53:14.036Z,10.07
2022-09-18T01:55:42.586Z,10.05
2022-09-18T01:58:12.401Z,10.02
2022-09-18T02:00:43.324Z,10.02
2022-09-18T02:03:26.487Z,9.95
2022-09-18T02:05:57.461Z,9.95
2022-09-18T02:08:29.259Z,9.92
2022-09-18T02:11:01.225Z,9.96
2022-09-18T02:13:34.275Z,9.94
2022-09-18T02:16:07.513Z,9.88
2022-09-18T02:18:41.200Z,9.92
2022-09-18T02:21:10.309Z,9.85
2022-09-18T02:23:41.937Z,9.85
2022-09-18T02:26:11.922Z,9.76
2022-09-18T02:28:39.996Z,9.94
2022-09-18T02:31:06.446Z,9.92
2022-09-18T02:33:37.430Z,9.85
2022-09-18T02:36:44.244Z,9.79
2022-09-18T02:39:17.258Z,9.77
2022-09-18T02:42:22.416Z,9.85
2022-09-18T02:45:04.253Z,9.71
2022-09-18T02:47:30.620Z,9.75
2022-09-18T02:50:29.166Z,9.86
2022-09-18T02:53:35.492Z,9.89
2022-09-18T02:56:19.565Z,9.81
2022-09-18T02:59:01.702Z,9.88
2022-09-18T03:01:29.857Z,9.94
2022-09-18T03:04:03.184Z,9.90
2022-09-18T03:06:29.578Z,9.80
2022-09-18T03:08:56.288Z,9.93
2022-09-18T03:11:22.763Z,9.83
2022-09-18T03:13:49.193Z,9.83
2022-09-18T03:16:15.657Z,9.82
2022-09-18T03:18:44.447Z,9.89
2022-09-18T03:21:13.250Z,9.88
2022-09-18T03:23:44.797Z,9.88
2022-09-18T03:26:11.983Z,9.86
2022-09-18T03:28:38.441Z,9.89
2022-09-18T03:31:04.901Z,9.97
2022-09-18T03:33:31.348Z,10.05
2022-09-18T03:35:57.847Z,9.99
2022-09-18T03:38:24.642Z,9.98
2022-09-18T03:40:51.062Z,10.04
2022-09-18T03:43:17.462Z,10.14
2022-09-18T03:45:44.192Z,10.13
2022-09-18T03:48:10.641Z,10.02
2022-09-18T03:50:37.087Z,10.13
2022-09-18T03:53:03.481Z,10.19
2022-09-18T03:55:29.932Z,10.27
2022-09-18T03:57:57.325Z,10.22
2022-09-18T04:00:23.765Z,10.24
2022-09-18T04:02:50.269Z,10.20
2022-09-18T04:05:16.747Z,10.27
2022-09-18T04:07:43.111Z,10.36
2022-09-18T04:10:09.852Z,10.38
2022-09-18T04:12:36.392Z,10.28
2022-09-18T04:15:05.281Z,10.19
2022-09-18T04:17:34.421Z,10.19
2022-09-18T04:20:00.948Z,10.24
2022-09-18T04:22:30.187Z,10.20
2022-09-18T04:24:56.645Z,10.13
2022-09-18T04:27:23.301Z,10.06
2022-09-18T04:29:49.676Z,10.07
2022-09-18T04:32:16.333Z,10.07
2022-09-18T04:34:45.080Z,10.08
2022-09-18T04:37:11.780Z,10.13
2022-09-18T04:39:38.255Z,10.15
2022-09-18T04:42:05.412Z,10.14
2022-09-18T04:44:31.846Z,10.07
2022-09-18T04:46:58.588Z,10.12
2022-09-18T04:49:25.034Z,10.12
2022-09-18T04:51:51.524Z,10.13
2022-09-18T04:54:17.928Z,10.22
2022-09-18T04:56:44.355Z,10.21
2022-09-18T04:59:10.849Z,10.21
2022-09-18T05:01:37.454Z,10.21
2022-09-18T05:04:04.047Z,10.18
2022-09-18T05:06:30.473Z,10.19
2022-09-18T05:08:57.830Z,10.25
2022-09-18T05:11:24.577Z,10.22
2022-09-18T05:13:56.429Z,10.30
2022-09-18T05:16:24.304Z,10.33
2022-09-18T05:18:51.887Z,10.25
2022-09-18T05:21:18.992Z,10.39
2022-09-18T05:23:46.839Z,10.38
2022-09-18T05:26:14.195Z,10.42
2022-09-18T05:28:40.828Z,10.39
2022-09-18T05:31:07.353Z,10.42
2022-09-18T05:33:33.938Z,10.50
2022-09-18T05:36:00.435Z,10.52
2022-09-18T05:38:27.170Z,10.53
2022-09-18T05:40:53.585Z,10.63
2022-09-18T05:43:20.117Z,10.58
2022-09-18T05:45:46.553Z,10.56
2022-09-18T05:48:13.232Z,10.59
2022-09-18T05:50:40.167Z,10.60
2022-09-18T05:53:12.138Z,10.75
2022-09-18T05:55:38.830Z,10.71
2022-09-18T05:58:07.062Z,10.68
2022-09-18T06:00:35.599Z,10.75
2022-09-18T06:03:07.831Z,10.73
2022-09-18T06:05:39.065Z,10.75
2022-09-18T06:08:10.313Z,10.76
2022-09-18T06:10:39.414Z,10.76
2022-09-18T06:13:12.983Z,10.80
2022-09-18T06:15:39.783Z,10.89
2022-09-18T06:18:07.024Z,10.88
2022-09-18T06:20:35.800Z,10.99
2022-09-18T06:23:03.116Z,10.99
2022-09-18T06:25:30.077Z,11.07
2022-09-18T06:28:00.836Z,11.17
2022-09-18T06:30:32.333Z,11.14
2022-09-18T06:33:04.621Z,11.17
2022-09-18T06:35:33.569Z,11.13
2022-09-18T06:38:03.077Z,11.09
2022-09-18T06:40:31.089Z,11.13
2022-09-18T06:42:59.197Z,11.20
2022-09-18T06:45:26.241Z,11.23
2022-09-18T06:47:55.856Z,11.17
2022-09-18T06:50:22.999Z,11.22
2022-09-18T06:52:49.439Z,11.17
2022-09-18T06:55:17.360Z,11.16
2022-09-18T06:57:53.493Z,11.15
2022-09-18T07:00:19.954Z,11.19
2022-09-18T07:02:46.351Z,11.20
2022-09-18T07:05:12.762Z,11.18
2022-09-18T07:07:39.383Z,11.19
2022-09-18T07:10:09.108Z,11.23
2022-09-18T07:12:35.753Z,11.44
2022-09-18T07:15:02.172Z,11.56
2022-09-18T07:17:28.583Z,11.42
2022-09-18T07:19:55.107Z,11.40
2022-09-18T07:22:21.545Z,11.30
2022-09-18T07:24:50.519Z,11.38
2022-09-18T07:27:16.971Z,11.39
2022-09-18T07:29:43.805Z,11.36
2022-09-18T07:32:10.249Z,11.42
2022-09-18T07:34:36.833Z,11.36
2022-09-18T07:37:03.556Z,11.40
2022-09-18T07:39:29.968Z,11.36
2022-09-18T07:41:56.377Z,11.41
2022-09-18T07:44:22.803Z,11.44
2022-09-18T07:46:51.022Z,11.38
2022-09-18T07:49:19.719Z,11.33
2022-09-18T07:51:48.638Z,11.34
2022-09-18T07:54:15.144Z,11.31
2022-09-18T07:56:46.587Z,11.32
2022-09-18T07:59:13.404Z,11.37
2022-09-18T08:01:40.033Z,11.31
2022-09-18T08:04:06.657Z,11.41
2022-09-18T08:06:33.278Z,11.44
2022-09-18T08:08:59.832Z,11.43
2022-09-18T08:11:26.270Z,11.58
2022-09-18T08:13:52.797Z,11.58
2022-09-18T08:16:19.338Z,11.56
2022-09-18T08:18:45.780Z,11.69
2022-09-18T08:21:12.231Z,11.63
2022-09-18T08:23:38.798Z,11.53
2022-09-18T08:26:05.383Z,11.57
2022-09-18T08:28:32.000Z,11.65
2022-09-18T08:31:01.002Z,11.65
2022-09-18T08:33:27.532Z,11.60
2022-09-18T08:35:55.579Z,11.54
2022-09-18T08:38:22.045Z,11.65
2022-09-18T08:40:54.364Z,11.65
2022-09-18T08:43:53.242Z,11.71
2022-09-18T08:46:26.270Z,11.81
2022-09-18T08:49:19.019Z,11.77
2022-09-18T08:51:50.182Z,11.84
2022-09-18T08:54:20.451Z,11.92
2022-09-18T08:56:51.234Z,12.02
2022-09-18T08:59:39.472Z,12.08
2022-09-18T09:02:25.067Z,12.04
2022-09-18T09:04:58.542Z,12.05
2022-09-18T09:07:52.562Z,12.16
2022-09-18T09:10:22.223Z,12.16
2022-09-18T09:12:59.463Z,12.15
2022-09-18T09:15:49.770Z,12.04
2022-09-18T09:18:27.709Z,12.01
2022-09-18T09:20:58.579Z,12.03
2022-09-18T09:24:21.204Z,12.02
2022-09-18T09:26:49.368Z,12.03
2022-09-18T09:29:23.411Z,12.00
2022-09-18T09:32:23.250Z,12.15
2022-09-18T09:35:00.540Z,12.11
2022-09-18T09:37:40.848Z,12.26
2022-09-18T09:40:17.892Z,12.15
2022-09-18T09:42:56.511Z,12.24
2022-09-18T09:45:35.621Z,12.45
2022-09-18T09:48:25.724Z,12.47
2022-09-18T09:51:11.107Z,12.45
2022-09-18T09:53:40.194Z,12.59
2022-09-18T09:56:32.642Z,12.54
2022-09-18T09:59:13.335Z,12.46
2022-09-18T10:01:45.973Z,12.27
2022-09-18T10:04:15.256Z,12.28
2022-09-18T10:07:23.155Z,12.29
2022-09-18T10:09:59.204Z,12.35
2022-09-18T10:12:47.436Z,12.13
2022-09-18T10:15:21.893Z,12.30
2022-09-18T10:17:52.216Z,12.37
2022-09-18T10:20:25.374Z,12.30
2022-09-18T10:22:52.210Z,12.38
2022-09-18T10:25:37.740Z,12.26
2022-09-18T10:28:04.145Z,12.21
2022-09-18T10:30:31.467Z,12.21
2022-09-18T10:33:02.846Z,12.26
2022-09-18T10:35:29.218Z,12.22
2022-09-18T10:37:56.507Z,12.21
2022-09-18T10:40:38.341Z,12.28
2022-09-18T10:43:06.580Z,12.26
2022-09-18T10:45:41.925Z,12.29
2022-09-18T10:48:16.571Z,12.30
2022-09-18T10:51:02.563Z,12.32
2022-09-18T10:53:39.783Z,12.41
2022-09-18T10:56:20.262Z,12.51
2022-09-18T10:58:47.197Z,12.51
2022-09-18T11:01:14.986Z,12.55
2022-09-18T11:03:41.927Z,12.54
2022-09-18T11:06:24.790Z,12.69
2022-09-18T11:09:02.187Z,12.74
2022-09-18T11:11:37.126Z,12.87
2022-09-18T11:14:06.542Z,12.86
2022-09-18T11:16:41.044Z,12.87
2022-09-18T11:19:10.998Z,12.80
2022-09-18T11:21:55.102Z,12.69
2022-09-18T11:24:27.535Z,12.73
2022-09-18T11:26:57.271Z,12.62
2022-09-18T11:29:27.256Z,12.67
2022-09-18T11:31:59.869Z,12.67
2022-09-18T11:34:34.806Z,12.60
2022-09-18T11:37:06.504Z,12.65
2022-09-18T11:39:36.943Z,12.50
2022-09-18T11:42:17.631Z,12.53
2022-09-18T11:44:44.980Z,12.53
2022-09-18T11:47:36.446Z,12.37
2022-09-18T11:50:03.674Z,12.37
2022-09-18T11:52:37.642Z,12.46
2022-09-18T11:55:20.094Z,12.49
2022-09-18T11:58:01.574Z,12.40
2022-09-18T12:00:35.831Z,12.37
2022-09-18T12:03:11.332Z,12.37
2022-09-18T12:05:52.183Z,12.51
2022-09-18T12:08:41.969Z,12.45
2022-09-18T12:11:13.085Z,12.45
2022-09-18T12:13:45.768Z,12.48
2022-09-18T12:16:37.119Z,12.43
2022-09-18T12:19:16.412Z,12.63
2022-09-18T12:21:45.946Z,12.83
2022-09-18T12:24:16.365Z,12.87
2022-09-18T12:26:54.287Z,12.98
2022-09-18T12:29:31.974Z,13.01
2022-09-18T12:32:22.708Z,13.20
2022-09-18T12:34:58.054Z,13.29
2022-09-18T12:37:46.368Z,13.35
2022-09-18T12:40:52.450Z,13.40
2022-09-18T12:43:37.202Z,13.28
2022-09-18T12:46:09.595Z,13.46
2022-09-18T12:48:51.359Z,13.42
2022-09-18T12:51:48.178Z,13.27
2022-09-18T12:54:17.797Z,13.14
2022-09-18T12:57:07.978Z,13.30
2022-09-18T13:00:13.848Z,13.44
2022-09-18T13:03:07.717Z,13.54
2022-09-18T13:05:41.273Z,13.76
2022-09-18T13:08:17.198Z,13.81
2022-09-18T13:10:47.151Z,13.92
2022-09-18T13:13:30.087Z,13.68
2022-09-18T13:16:05.035Z,13.77
2022-09-18T13:18:44.511Z,13.83
2022-09-18T13:21:27.471Z,13.79
2022-09-18T13:23:54.947Z,13.89
2022-09-18T13:26:24.402Z,13.89
2022-09-18T13:28:53.219Z,13.93
2022-09-18T13:31:31.825Z,13.89
2022-09-18T13:34:04.318Z,14.00
2022-09-18T13:36:35.341Z,14.15
2022-09-18T13:39:06.231Z,14.16
2022-09-18T13:42:03.015Z,14.16
2022-09-18T13:44:34.049Z,14.21
2022-09-18T13:47:15.380Z,14.31
2022-09-18T13:49:49.896Z,14.25
2022-09-18T13:52:31.611Z,14.27
2022-09-18T13:55:13.314Z,14.22
2022-09-18T13:57:41.361Z,14.17
2022-09-18T14:00:20.343Z,14.07
2022-09-18T14:02:47.908Z,13.95
2022-09-18T14:05:31.642Z,13.87
2022-09-18T14:08:24.305Z,13.81
2022-09-18T14:11:15.753Z,13.84
2022-09-18T14:13:51.396Z,13.95
2022-09-18T14:16:24.055Z,13.96
2022-09-18T14:19:01.636Z,14.00
2022-09-18T14:21:34.227Z,13.95
2022-09-18T14:24:19.652Z,13.82
2022-09-18T14:26:47.098Z,13.73
2022-09-18T14:29:19.575Z,13.73
2022-09-18T14:31:51.878Z,13.75
2022-09-18T14:34:27.197Z,13.71
2022-09-18T14:36:57.548Z,13.66
2022-09-18T14:39:37.112Z,13.67
2022-09-18T14:42:24.650Z,13.71
2022-09-18T14:44:57.538Z,13.64
2022-09-18T14:47:26.685Z,13.67
2022-09-18T14:49:56.059Z,13.73
2022-09-18T14:52:24.180Z,13.69
2022-09-18T14:54:53.641Z,13.63
2022-09-18T14:57:26.733Z,13.73
2022-09-18T14:59:56.652Z,13.67
2022-09-18T15:02:31.309Z,13.73
2022-09-18T15:04:58.357Z,13.77
2022-09-18T15:07:27.830Z,13.72
2022-09-18T15:09:59.737Z,13.88
2022-09-18T15:12:30.537Z,13.93
2022-09-18T15:14:58.765Z,13.95
2022-09-18T15:17:33.687Z,13.84
2022-09-18T15:20:02.683Z,13.82
2022-09-18T15:22:30.069Z,13.84
2022-09-18T15:25:01.801Z,13.85
2022-09-18T15:27:30.082Z,13.86
2022-09-18T15:30:04.091Z,13.81
2022-09-18T15:32:40.942Z,13.88
2022-09-18T15:35:13.678Z,13.89
2022-09-18T15:37:49.998Z,13.82
2022-09-18T15:40:19.960Z,13.89
2022-09-18T15:42:59.188Z,13.89
2022-09-18T15:45:32.678Z,13.78
2022-09-18T15:48:37.109Z,13.77
2022-09-18T15:51:28.143Z,13.82
2022-09-18T15:54:09.243Z,13.74
2022-09-18T15:56:39.332Z,13.75
2022-09-18T15:59:22.124Z,13.73
2022-09-18T16:01:48.845Z,13.71
2022-09-18T16:04:20.277Z,13.63
2022-09-18T16:06:55.567Z,13.68
2022-09-18T16:09:37.602Z,13.60
2022-09-18T16:12:31.392Z,13.61
2022-09-18T16:15:16.733Z,13.60
2022-09-18T16:17:46.514Z,13.58
2022-09-18T16:20:24.522Z,13.58
2022-09-18T16:22:54.196Z,13.50
2022-09-18T16:25:24.316Z,13.34
2022-09-18T16:27:54.291Z,13.44
2022-09-18T16:30:20.819Z,13.41
2022-09-18T16:32:47.328Z,13.39
2022-09-18T16:35:16.068Z,13.37
2022-09-18T16:37:44.021Z,13.34
2022-09-18T16:40:19.112Z,13.38
2022-09-18T16:42:45.643Z,13.34
2022-09-18T16:45:12.142Z,13.33
2022-09-18T16:47:50.112Z,13.28
2022-09-18T16:50:20.011Z,13.24
2022-09-18T16:52:49.669Z,13.17
2022-09-18T16:55:16.366Z,13.18
2022-09-18T16:57:45.164Z,13.28
2022-09-18T17:00:12.323Z,13.38
2022-09-18T17:02:41.538Z,13.28
2022-09-18T17:05:08.245Z,13.22
2022-09-18T17:07:35.781Z,13.13
2022-09-18T17:10:02.444Z,13.15
2022-09-18T17:12:28.980Z,13.05
2022-09-18T17:14:55.591Z,13.00
2022-09-18T17:17:22.078Z,12.96
2022-09-18T17:19:48.543Z,12.85
2022-09-18T17:22:14.996Z,12.87
2022-09-18T17:24:41.499Z,12.83
2022-09-18T17:27:07.997Z,12.69
2022-09-18T17:29:34.493Z,12.80
2022-09-18T17:32:03.488Z,12.77
2022-09-18T17:34:30.035Z,12.74
2022-09-18T17:36:56.468Z,12.76
2022-09-18T17:39:25.501Z,12.76
2022-09-18T17:41:52.005Z,12.78
2022-09-18T17:44:19.888Z,12.76
2022-09-18T17:46:51.235Z,12.68
2022-09-18T17:49:18.300Z,12.64
2022-09-18T17:51:45.327Z,12.76
2022-09-18T17:54:12.181Z,12.80
2022-09-18T17:56:39.001Z,12.72
2022-09-18T17:59:08.299Z,12.66
2022-09-18T18:01:41.999Z,12.61
2022-09-18T18:04:08.842Z,12.68
2022-09-18T18:06:38.179Z,12.69
2022-09-18T18:09:06.698Z,12.68
2022-09-18T18:11:33.452Z,12.62
2022-09-18T18:14:00.224Z,12.70
2022-09-18T18:16:31.126Z,12.68
2022-09-18T18:19:07.082Z,12.64
2022-09-18T18:21:34.434Z,12.69
2022-09-18T18:24:06.864Z,12.63
2022-09-18T18:26:37.706Z,12.63
2022-09-18T18:29:10.624Z,12.63
2022-09-18T18:31:39.027Z,12.62
2022-09-18T18:34:05.923Z,12.62
2022-09-18T18:36:33.822Z,12.57
2022-09-18T18:39:01.826Z,12.63
2022-09-18T18:41:30.030Z,12.57
2022-09-18T18:43:58.893Z,12.44
2022-09-18T18:46:28.507Z,12.43
2022-09-18T18:49:03.796Z,12.44
2022-09-18T18:51:32.398Z,12.36
2022-09-18T18:54:03.597Z,12.51
2022-09-18T18:56:33.551Z,12.56
2022-09-18T18:59:02.674Z,12.57
2022-09-18T19:01:30.643Z,12.48
2022-09-18T19:04:02.836Z,12.63
2022-09-18T19:06:29.816Z,12.58
2022-09-18T19:08:58.544Z,12.59
2022-09-18T19:11:25.701Z,12.56
2022-09-18T19:13:56.647Z,12.60
2022-09-18T19:16:32.039Z,12.57
2022-09-18T19:19:00.227Z,12.52
2022-09-18T19:21:31.734Z,12.61
2022-09-18T19:24:00.544Z,12.63
2022-09-18T19:26:28.696Z,12.51
2022-09-18T19:29:04.728Z,12.54
2022-09-18T19:31:35.977Z,12.57
2022-09-18T19:34:03.131Z,12.59
2022-09-18T19:36:33.144Z,12.62
2022-09-18T19:39:02.193Z,12.55
2022-09-18T19:41:47.794Z,12.54
2022-09-18T19:44:32.946Z,12.51
2022-09-18T19:47:04.766Z,12.51
2022-09-18T19:49:35.060Z,12.45
2022-09-18T19:52:07.910Z,12.46
2022-09-18T19:54:34.358Z,12.43
2022-09-18T19:57:00.796Z,12.44
2022-09-18T19:59:27.710Z,12.49
2022-09-18T20:01:55.184Z,12.48
2022-09-18T20:04:24.306Z,12.49
2022-09-18T20:06:50.760Z,12.41
2022-09-18T20:09:17.185Z,12.37
2022-09-18T20:11:47.592Z,12.39
2022-09-18T20:14:15.465Z,12.37
2022-09-18T20:16:41.917Z,12.31
2022-09-18T20:19:08.418Z,12.32
2022-09-18T20:21:34.834Z,12.26
2022-09-18T20:24:01.911Z,12.24
2022-09-18T20:26:28.949Z,12.28
2022-09-18T20:28:55.534Z,12.20
2022-09-18T20:31:23.872Z,12.34
2022-09-18T20:33:57.591Z,12.30
2022-09-18T20:36:25.723Z,12.28
2022-09-18T20:38:58.010Z,12.34
2022-09-18T20:41:27.999Z,12.27
2022-09-18T20:43:54.934Z,12.30
2022-09-18T20:46:22.955Z,12.23
2022-09-18T20:48:55.246Z,12.11
2022-09-18T20:51:34.678Z,12.17
2022-09-18T20:54:06.938Z,12.20
2022-09-18T20:56:41.269Z,12.10
2022-09-18T20:59:09.732Z,12.06
2022-09-18T21:01:41.404Z,12.11
2022-09-18T21:04:09.650Z,12.11
2022-09-18T21:06:36.944Z,12.22
2022-09-18T21:09:08.858Z,12.29
2022-09-18T21:11:38.661Z,12.26
2022-09-18T21:14:09.478Z,12.18
2022-09-18T21:16:42.723Z,12.13
2022-09-18T21:19:11.602Z,12.22
2022-09-18T21:21:38.754Z,12.22
2022-09-18T21:24:05.991Z,12.19
2022-09-18T21:26:43.768Z,12.18
2022-09-18T21:29:14.676Z,12.23
2022-09-18T21:31:42.541Z,12.27
2022-09-18T21:34:15.404Z,12.19
2022-09-18T21:36:45.317Z,12.05
2022-09-18T21:39:13.651Z,12.11
2022-09-18T21:41:45.794Z,12.08
2022-09-18T21:44:17.220Z,12.06
2022-09-18T21:46:45.938Z,12.02
2022-09-18T21:49:14.941Z,12.03
2022-09-18T21:51:42.491Z,12.04
2022-09-18T21:54:15.185Z,12.18
2022-09-18T21:56:44.937Z,12.17
2022-09-18T21:59:12.650Z,12.19
2022-09-18T22:01:39.372Z,12.05
2022-09-18T22:04:12.100Z,12.03
2022-09-18T22:06:41.653Z,12.12
2022-09-18T22:09:30.261Z,12.17
2022-09-18T22:11:57.797Z,12.19
2022-09-18T22:14:29.418Z,12.20
2022-09-18T22:16:56.408Z,12.26
2022-09-18T22:19:23.070Z,12.26
2022-09-18T22:21:50.984Z,12.26
2022-09-18T22:24:19.894Z,12.22
2022-09-18T22:27:08.219Z,12.25
2022-09-18T22:29:37.018Z,12.20
2022-09-18T22:32:04.450Z,12.18
2022-09-18T22:34:37.300Z,12.30
2022-09-18T22:37:04.343Z,12.24
2022-09-18T22:39:30.787Z,12.23
2022-09-18T22:41:57.530Z,12.20
2022-09-18T22:44:24.104Z,12.26
2022-09-18T22:46:52.496Z,12.26
2022-09-18T22:49:23.542Z,12.25
2022-09-18T22:51:50.737Z,12.16
2022-09-18T22:54:17.503Z,12.15
2022-09-18T22:56:47.010Z,12.11
2022-09-18T22:59:15.854Z,12.16
2022-09-18T23:01:55.281Z,12.12
2022-09-18T23:04:29.162Z,12.00
2022-09-18T23:06:57.121Z,11.97
2022-09-18T23:09:23.947Z,11.94
2022-09-18T23:11:54.243Z,12.00
2022-09-18T23:14:26.472Z,11.97
2022-09-18T23:16:53.769Z,12.14
2022-09-18T23:19:28.427Z,12.12
2022-09-18T23:21:55.916Z,12.02
2022-09-18T23:24:23.202Z,11.91
2022-09-18T23:26:51.506Z,11.81
2022-09-18T23:29:21.374Z,11.74
2022-09-18T23:31:52.901Z,11.74
2022-09-18T23:34:23.614Z,11.70
2022-09-18T23:36:53.023Z,11.66
2022-09-18T23:39:33.814Z,11.49
2022-09-18T23:42:02.719Z,11.47
2022-09-18T23:44:30.962Z,11.44
2022-09-18T23:47:00.455Z,11.39
2022-09-18T23:49:27.273Z,11.27
2022-09-18T23:51:54.825Z,11.32
2022-09-18T23:54:27.561Z,11.18
2022-09-18T23:56:54.791Z,11.14
2022-09-18T23:59:23.815Z,11.06
